sensor_id;sensor_type;location;lat;lon;timestamp;pressure;altitude;pressure_sealevel;temperature;humidity
43770;BME280;6597;52.218;9.882;2023-05-01T00:01:03;101208.38;;;4.80;86.97
43770;BME280;6597;52.218;9.882;2023-05-01T00:03:32;101204.97;;;4.72;86.81
43770;BME280;6597;52.218;9.882;2023-05-01T00:05:59;101198.91;;;4.65;87.43
43770;BME280;6597;52.218;9.882;2023-05-01T00:08:26;101197.22;;;4.59;87.61
43770;BME280;6597;52.218;9.882;2023-05-01T00:10:52;101192.00;;;4.61;87.77
43770;BME280;6597;52.218;9.882;2023-05-01T00:13:19;101189.38;;;4.64;88.49
43770;BME280;6597;52.218;9.882;2023-05-01T00:15:48;101180.69;;;4.68;88.68
43770;BME280;6597;52.218;9.882;2023-05-01T00:18:15;101185.03;;;4.67;88.44
43770;BME280;6597;52.218;9.882;2023-05-01T00:20:43;101189.41;;;4.61;89.00
43770;BME280;6597;52.218;9.882;2023-05-01T00:23:09;101181.59;;;4.55;88.74
43770;BME280;6597;52.218;9.882;2023-05-01T00:25:36;101181.63;;;4.47;88.82
43770;BME280;6597;52.218;9.882;2023-05-01T00:28:03;101177.34;;;4.40;89.64
43770;BME280;6597;52.218;9.882;2023-05-01T00:30:31;101177.34;;;4.37;89.90
43770;BME280;6597;52.218;9.882;2023-05-01T00:32:58;101179.09;;;4.33;89.90
43770;BME280;6597;52.218;9.882;2023-05-01T00:35:26;101165.25;;;4.28;90.20
43770;BME280;6597;52.218;9.882;2023-05-01T00:37:54;101166.97;;;4.28;90.86
43770;BME280;6597;52.218;9.882;2023-05-01T00:40:20;101170.44;;;4.28;91.03
43770;BME280;6597;52.218;9.882;2023-05-01T00:42:47;101162.66;;;4.21;91.22
43770;BME280;6597;52.218;9.882;2023-05-01T00:45:14;101164.41;;;4.14;91.07
43770;BME280;6597;52.218;9.882;2023-05-01T00:47:41;101157.50;;;4.09;91.35
43770;BME280;6597;52.218;9.882;2023-05-01T00:50:08;101158.38;;;4.03;91.49
43770;BME280;6597;52.218;9.882;2023-05-01T00:52:35;101160.13;;;3.98;92.16
43770;BME280;6597;52.218;9.882;2023-05-01T00:55:04;101160.13;;;3.95;91.99
43770;BME280;6597;52.218;9.882;2023-05-01T00:57:32;101164.44;;;3.88;91.93
43770;BME280;6597;52.218;9.882;2023-05-01T00:59:58;101151.47;;;3.84;92.08
43770;BME280;6597;52.218;9.882;2023-05-01T01:02:25;101158.38;;;3.83;92.45
43770;BME280;6597;52.218;9.882;2023-05-01T01:04:52;101157.53;;;3.83;92.19
43770;BME280;6597;52.218;9.882;2023-05-01T01:07:22;101156.66;;;3.85;92.09
43770;BME280;6597;52.218;9.882;2023-05-01T01:10:01;101154.94;;;3.93;92.25
43770;BME280;6597;52.218;9.882;2023-05-01T01:12:38;101147.13;;;3.96;92.28
43770;BME280;6597;52.218;9.882;2023-05-01T01:15:12;101146.28;;;3.91;91.94
43770;BME280;6597;52.218;9.882;2023-05-01T01:17:45;101139.34;;;3.84;91.93
43770;BME280;6597;52.218;9.882;2023-05-01T01:20:26;101141.09;;;3.79;92.53
43770;BME280;6597;52.218;9.882;2023-05-01T01:23:09;101135.03;;;3.77;92.91
43770;BME280;6597;52.218;9.882;2023-05-01T01:26:03;101129.84;;;3.79;92.75
43770;BME280;6597;52.218;9.882;2023-05-01T01:28:58;101123.78;;;3.80;92.89
43770;BME280;6597;52.218;9.882;2023-05-01T01:31:31;101114.22;;;3.86;93.78
43770;BME280;6597;52.218;9.882;2023-05-01T01:34:02;101120.28;;;3.88;93.87
43770;BME280;6597;52.218;9.882;2023-05-01T01:36:42;101114.25;;;3.83;94.25
43770;BME280;6597;52.218;9.882;2023-05-01T01:39:13;101117.72;;;3.79;94.49
43770;BME280;6597;52.218;9.882;2023-05-01T01:41:46;101116.84;;;3.75;94.57
43770;BME280;6597;52.218;9.882;2023-05-01T01:44:16;101118.59;;;3.70;94.46
43770;BME280;6597;52.218;9.882;2023-05-01T01:46:47;101110.81;;;3.66;94.66
43770;BME280;6597;52.218;9.882;2023-05-01T01:49:18;101103.91;;;3.60;95.13
43770;BME280;6597;52.218;9.882;2023-05-01T01:51:47;101103.91;;;3.66;95.40
43770;BME280;6597;52.218;9.882;2023-05-01T01:54:18;101092.66;;;3.61;95.75
43770;BME280;6597;52.218;9.882;2023-05-01T01:56:48;101088.31;;;3.68;95.16
43770;BME280;6597;52.218;9.882;2023-05-01T01:59:16;101083.13;;;3.65;95.21
43770;BME280;6597;52.218;9.882;2023-05-01T02:01:45;101082.28;;;3.61;94.80
43770;BME280;6597;52.218;9.882;2023-05-01T02:04:13;101074.50;;;3.58;94.77
43770;BME280;6597;52.218;9.882;2023-05-01T02:06:43;101076.19;;;3.56;94.15
43770;BME280;6597;52.218;9.882;2023-05-01T02:09:11;101076.19;;;3.55;94.81
43770;BME280;6597;52.218;9.882;2023-05-01T02:11:38;101071.00;;;3.55;94.76
43770;BME280;6597;52.218;9.882;2023-05-01T02:14:06;101074.50;;;3.61;95.11
43770;BME280;6597;52.218;9.882;2023-05-01T02:16:34;101066.69;;;3.67;94.93
43770;BME280;6597;52.218;9.882;2023-05-01T02:19:02;101068.41;;;3.68;94.74
43770;BME280;6597;52.218;9.882;2023-05-01T02:21:29;101064.94;;;3.69;94.42
43770;BME280;6597;52.218;9.882;2023-05-01T02:23:59;101053.69;;;3.70;94.71
43770;BME280;6597;52.218;9.882;2023-05-01T02:26:27;101046.78;;;3.68;94.35
43770;BME280;6597;52.218;9.882;2023-05-01T02:28:54;101048.50;;;3.66;94.28
43770;BME280;6597;52.218;9.882;2023-05-01T02:31:21;101039.00;;;3.60;94.56
43770;BME280;6597;52.218;9.882;2023-05-01T02:33:48;101039.00;;;3.57;94.69
43770;BME280;6597;52.218;9.882;2023-05-01T02:36:14;101042.47;;;3.53;94.85
43770;BME280;6597;52.218;9.882;2023-05-01T02:38:41;101045.06;;;3.49;95.02
43770;BME280;6597;52.218;9.882;2023-05-01T02:41:10;101030.38;;;3.40;95.27
43770;BME280;6597;52.218;9.882;2023-05-01T02:43:39;101033.84;;;3.36;95.68
43770;BME280;6597;52.218;9.882;2023-05-01T02:46:09;101031.28;;;3.31;95.34
43770;BME280;6597;52.218;9.882;2023-05-01T02:48:36;101031.25;;;3.37;95.93
43770;BME280;6597;52.218;9.882;2023-05-01T02:51:04;101030.41;;;3.26;95.73
43770;BME280;6597;52.218;9.882;2023-05-01T02:53:32;101026.94;;;3.29;96.61
43770;BME280;6597;52.218;9.882;2023-05-01T02:56:14;101017.41;;;3.25;97.17
43770;BME280;6597;52.218;9.882;2023-05-01T02:58:41;101016.56;;;3.23;97.25
43770;BME280;6597;52.218;9.882;2023-05-01T03:01:09;101017.41;;;3.22;97.48
43770;BME280;6597;52.218;9.882;2023-05-01T03:03:36;101018.28;;;3.24;97.50
43770;BME280;6597;52.218;9.882;2023-05-01T03:06:03;101007.91;;;3.30;97.44
43770;BME280;6597;52.218;9.882;2023-05-01T03:08:29;101013.09;;;3.31;96.46
43770;BME280;6597;52.218;9.882;2023-05-01T03:10:56;101007.03;;;3.23;96.11
43770;BME280;6597;52.218;9.882;2023-05-01T03:13:24;101004.47;;;3.17;96.39
43770;BME280;6597;52.218;9.882;2023-05-01T03:15:51;101000.13;;;3.16;96.82
43770;BME280;6597;52.218;9.882;2023-05-01T03:18:19;100999.25;;;3.20;97.11
43770;BME280;6597;52.218;9.882;2023-05-01T03:20:52;100993.22;;;3.18;97.20
43770;BME280;6597;52.218;9.882;2023-05-01T03:23:19;100999.25;;;3.19;97.40
43770;BME280;6597;52.218;9.882;2023-05-01T03:25:46;100992.34;;;3.15;97.43
43770;BME280;6597;52.218;9.882;2023-05-01T03:28:13;100991.50;;;3.11;97.78
43770;BME280;6597;52.218;9.882;2023-05-01T03:30:41;100983.72;;;3.11;97.74
43770;BME280;6597;52.218;9.882;2023-05-01T03:33:07;100992.38;;;3.10;97.56
43770;BME280;6597;52.218;9.882;2023-05-01T03:35:34;100980.25;;;3.09;97.37
43770;BME280;6597;52.218;9.882;2023-05-01T03:38:03;100983.72;;;3.08;97.48
43770;BME280;6597;52.218;9.882;2023-05-01T03:41:02;100980.25;;;3.09;97.36
43770;BME280;6597;52.218;9.882;2023-05-01T03:43:49;100972.47;;;3.15;97.05
43770;BME280;6597;52.218;9.882;2023-05-01T03:46:37;100965.56;;;3.14;96.88
43770;BME280;6597;52.218;9.882;2023-05-01T03:49:06;100968.16;;;3.09;97.41
43770;BME280;6597;52.218;9.882;2023-05-01T03:51:38;100962.97;;;3.06;97.75
43770;BME280;6597;52.218;9.882;2023-05-01T03:54:05;100962.97;;;3.11;97.55
43770;BME280;6597;52.218;9.882;2023-05-01T03:56:45;100957.78;;;3.12;97.39
43770;BME280;6597;52.218;9.882;2023-05-01T03:59:12;100956.03;;;3.16;97.92
43770;BME280;6597;52.218;9.882;2023-05-01T04:01:40;100953.44;;;3.18;97.77
43770;BME280;6597;52.218;9.882;2023-05-01T04:04:07;100959.47;;;3.20;97.16
43770;BME280;6597;52.218;9.882;2023-05-01T04:06:35;100954.31;;;3.18;97.15
43770;BME280;6597;52.218;9.882;2023-05-01T04:09:02;100958.63;;;3.22;97.29
43770;BME280;6597;52.218;9.882;2023-05-01T04:11:28;100940.47;;;3.22;97.46
43770;BME280;6597;52.218;9.882;2023-05-01T04:13:55;100944.78;;;3.28;97.00
43770;BME280;6597;52.218;9.882;2023-05-01T04:16:22;100946.50;;;3.30;96.66
43770;BME280;6597;52.218;9.882;2023-05-01T04:18:50;100941.31;;;3.36;97.03
43770;BME280;6597;52.218;9.882;2023-05-01T04:21:17;100943.03;;;3.40;96.96
43770;BME280;6597;52.218;9.882;2023-05-01T04:23:47;100935.25;;;3.39;96.72
43770;BME280;6597;52.218;9.882;2023-05-01T04:26:14;100929.19;;;3.35;96.79
43770;BME280;6597;52.218;9.882;2023-05-01T04:28:41;100943.03;;;3.34;96.93
43770;BME280;6597;52.218;9.882;2023-05-01T04:31:09;100936.13;;;3.36;97.62
43770;BME280;6597;52.218;9.882;2023-05-01T04:33:36;100931.78;;;3.37;97.86
43770;BME280;6597;52.218;9.882;2023-05-01T04:36:04;100924.88;;;3.33;97.05
43770;BME280;6597;52.218;9.882;2023-05-01T04:38:31;100931.81;;;3.34;97.43
43770;BME280;6597;52.218;9.882;2023-05-01T04:40:58;100930.03;;;3.42;97.71
43770;BME280;6597;52.218;9.882;2023-05-01T04:43:25;100929.16;;;3.49;97.65
43770;BME280;6597;52.218;9.882;2023-05-01T04:45:52;100930.00;;;3.53;97.93
43770;BME280;6597;52.218;9.882;2023-05-01T04:48:19;100931.72;;;3.55;97.37
43770;BME280;6597;52.218;9.882;2023-05-01T04:50:45;100929.13;;;3.60;97.44
43770;BME280;6597;52.218;9.882;2023-05-01T04:53:13;100926.50;;;3.69;97.27
43770;BME280;6597;52.218;9.882;2023-05-01T04:55:41;100933.34;;;3.79;96.75
43770;BME280;6597;52.218;9.882;2023-05-01T04:58:12;100927.25;;;3.86;96.81
43770;BME280;6597;52.218;9.882;2023-05-01T05:00:39;100935.03;;;3.92;96.66
43770;BME280;6597;52.218;9.882;2023-05-01T05:03:08;100927.19;;;4.01;96.38
43770;BME280;6597;52.218;9.882;2023-05-01T05:05:35;100926.25;;;4.15;95.84
43770;BME280;6597;52.218;9.882;2023-05-01T05:08:04;100929.69;;;4.17;95.39
43770;BME280;6597;52.218;9.882;2023-05-01T05:10:32;100932.28;;;4.23;95.29
43770;BME280;6597;52.218;9.882;2023-05-01T05:13:17;100928.78;;;4.27;95.05
43770;BME280;6597;52.218;9.882;2023-05-01T05:15:47;100931.31;;;4.33;95.53
43770;BME280;6597;52.218;9.882;2023-05-01T05:18:13;100931.28;;;4.41;95.75
43770;BME280;6597;52.218;9.882;2023-05-01T05:20:40;100926.03;;;4.45;95.81
43770;BME280;6597;52.218;9.882;2023-05-01T05:23:07;100917.31;;;4.52;95.78
43770;BME280;6597;52.218;9.882;2023-05-01T05:25:35;100919.03;;;4.56;96.19
43770;BME280;6597;52.218;9.882;2023-05-01T05:28:02;100916.34;;;4.67;96.06
43770;BME280;6597;52.218;9.882;2023-05-01T05:30:29;100930.06;;;4.81;96.07
43770;BME280;6597;52.218;9.882;2023-05-01T05:32:56;100921.34;;;4.87;96.00
43770;BME280;6597;52.218;9.882;2023-05-01T05:35:23;100919.50;;;4.99;96.68
43770;BME280;6597;52.218;9.882;2023-05-01T05:37:51;100918.44;;;5.17;96.91
43770;BME280;6597;52.218;9.882;2023-05-01T05:40:19;100918.31;;;5.31;97.12
43770;BME280;6597;52.218;9.882;2023-05-01T05:42:57;100918.13;;;5.46;97.29
43770;BME280;6597;52.218;9.882;2023-05-01T05:45:26;100917.13;;;5.61;96.19
43770;BME280;6597;52.218;9.882;2023-05-01T05:47:53;100912.66;;;5.71;93.79
43770;BME280;6597;52.218;9.882;2023-05-01T05:50:20;100905.50;;;5.85;93.98
43770;BME280;6597;52.218;9.882;2023-05-01T05:52:46;100902.72;;;6.02;93.49
43770;BME280;6597;52.218;9.882;2023-05-01T05:55:13;100905.97;;;6.16;91.89
43770;BME280;6597;52.218;9.882;2023-05-01T05:57:48;100911.03;;;6.28;89.48
43770;BME280;6597;52.218;9.882;2023-05-01T06:00:17;100901.28;;;6.39;87.73
43770;BME280;6597;52.218;9.882;2023-05-01T06:02:47;100905.38;;;6.55;88.69
43770;BME280;6597;52.218;9.882;2023-05-01T06:05:14;100898.28;;;6.64;88.07
43770;BME280;6597;52.218;9.882;2023-05-01T06:07:41;100900.69;;;6.76;88.29
43770;BME280;6597;52.218;9.882;2023-05-01T06:10:08;100899.69;;;6.84;88.03
43770;BME280;6597;52.218;9.882;2023-05-01T06:12:35;100896.09;;;6.90;88.26
43770;BME280;6597;52.218;9.882;2023-05-01T06:15:04;100894.19;;;7.00;86.59
43770;BME280;6597;52.218;9.882;2023-05-01T06:17:33;100891.28;;;7.13;86.71
43770;BME280;6597;52.218;9.882;2023-05-01T06:20:02;100892.72;;;7.31;86.94
43770;BME280;6597;52.218;9.882;2023-05-01T06:22:30;100891.31;;;7.58;86.66
43770;BME280;6597;52.218;9.882;2023-05-01T06:25:01;100888.22;;;7.81;83.33
43770;BME280;6597;52.218;9.882;2023-05-01T06:27:29;100885.97;;;8.03;82.64
43770;BME280;6597;52.218;9.882;2023-05-01T06:29:55;100873.53;;;8.12;81.84
43770;BME280;6597;52.218;9.882;2023-05-01T06:32:22;100880.72;;;8.41;80.71
43770;BME280;6597;52.218;9.882;2023-05-01T06:34:50;100867.34;;;8.55;80.20
43770;BME280;6597;52.218;9.882;2023-05-01T06:37:17;100869.38;;;8.77;79.05
43770;BME280;6597;52.218;9.882;2023-05-01T06:39:43;100868.72;;;9.02;79.09
43770;BME280;6597;52.218;9.882;2023-05-01T06:42:10;100862.69;;;9.31;77.94
43770;BME280;6597;52.218;9.882;2023-05-01T06:44:40;100868.63;;;9.67;75.01
43770;BME280;6597;52.218;9.882;2023-05-01T06:47:06;100862.25;;;10.04;74.08
43770;BME280;6597;52.218;9.882;2023-05-01T06:49:33;100859.75;;;10.29;72.22
43770;BME280;6597;52.218;9.882;2023-05-01T06:52:01;100862.44;;;10.27;72.55
43770;BME280;6597;52.218;9.882;2023-05-01T06:54:27;100860.88;;;10.22;70.48
43770;BME280;6597;52.218;9.882;2023-05-01T06:56:54;100843.44;;;10.19;71.17
43770;BME280;6597;52.218;9.882;2023-05-01T06:59:21;100850.72;;;10.38;70.18
43770;BME280;6597;52.218;9.882;2023-05-01T07:01:47;100852.22;;;10.46;69.59
43770;BME280;6597;52.218;9.882;2023-05-01T07:04:14;100849.06;;;10.62;70.22
43770;BME280;6597;52.218;9.882;2023-05-01T07:06:40;100849.66;;;10.95;71.07
43770;BME280;6597;52.218;9.882;2023-05-01T07:09:08;100840.34;;;11.34;70.97
43770;BME280;6597;52.218;9.882;2023-05-01T07:11:35;100835.38;;;11.73;67.92
43770;BME280;6597;52.218;9.882;2023-05-01T07:14:02;100835.56;;;12.14;65.31
43770;BME280;6597;52.218;9.882;2023-05-01T07:16:29;100833.13;;;12.52;62.02
43770;BME280;6597;52.218;9.882;2023-05-01T07:18:56;100835.84;;;12.91;62.42
43770;BME280;6597;52.218;9.882;2023-05-01T07:21:23;100829.84;;;13.07;59.64
43770;BME280;6597;52.218;9.882;2023-05-01T07:23:49;100830.81;;;13.25;56.97
43770;BME280;6597;52.218;9.882;2023-05-01T07:26:17;100821.94;;;13.47;57.20
43770;BME280;6597;52.218;9.882;2023-05-01T07:28:44;100816.81;;;13.62;56.83
43770;BME280;6597;52.218;9.882;2023-05-01T07:31:10;100823.69;;;13.66;52.82
43770;BME280;6597;52.218;9.882;2023-05-01T07:33:37;100821.47;;;13.76;53.12
43770;BME280;6597;52.218;9.882;2023-05-01T07:36:03;100823.03;;;13.80;50.79
43770;BME280;6597;52.218;9.882;2023-05-01T07:38:30;100816.44;;;14.08;51.04
43770;BME280;6597;52.218;9.882;2023-05-01T07:40:57;100822.97;;;14.18;49.61
43770;BME280;6597;52.218;9.882;2023-05-01T07:43:25;100808.09;;;14.34;49.26
43770;BME280;6597;52.218;9.882;2023-05-01T07:45:55;100810.22;;;14.45;48.90
43770;BME280;6597;52.218;9.882;2023-05-01T07:48:22;100811.00;;;14.47;49.06
43770;BME280;6597;52.218;9.882;2023-05-01T07:50:49;100805.66;;;14.66;49.55
43770;BME280;6597;52.218;9.882;2023-05-01T07:53:16;100806.47;;;14.83;49.46
43770;BME280;6597;52.218;9.882;2023-05-01T07:55:42;100793.31;;;14.99;47.39
43770;BME280;6597;52.218;9.882;2023-05-01T07:58:09;100795.81;;;15.02;48.69
43770;BME280;6597;52.218;9.882;2023-05-01T08:00:37;100799.06;;;15.07;47.78
43770;BME280;6597;52.218;9.882;2023-05-01T08:03:03;100801.53;;;15.10;47.69
43770;BME280;6597;52.218;9.882;2023-05-01T08:05:30;100800.09;;;15.20;46.55
43770;BME280;6597;52.218;9.882;2023-05-01T08:07:56;100793.06;;;15.37;45.84
43770;BME280;6597;52.218;9.882;2023-05-01T08:10:23;100792.22;;;15.52;44.34
43770;BME280;6597;52.218;9.882;2023-05-01T08:12:50;100788.09;;;15.64;44.30
43770;BME280;6597;52.218;9.882;2023-05-01T08:15:16;100776.47;;;15.66;43.10
43770;BME280;6597;52.218;9.882;2023-05-01T08:17:45;100779.78;;;15.85;44.14
43770;BME280;6597;52.218;9.882;2023-05-01T08:20:12;100775.91;;;15.91;41.82
43770;BME280;6597;52.218;9.882;2023-05-01T08:22:39;100773.84;;;16.12;43.73
43770;BME280;6597;52.218;9.882;2023-05-01T08:25:06;100768.19;;;16.48;43.62
43770;BME280;6597;52.218;9.882;2023-05-01T08:27:33;100768.47;;;16.88;42.36
43770;BME280;6597;52.218;9.882;2023-05-01T08:30:00;100766.78;;;17.01;40.44
43770;BME280;6597;52.218;9.882;2023-05-01T08:32:26;100768.22;;;17.35;40.23
43770;BME280;6597;52.218;9.882;2023-05-01T08:34:54;100762.09;;;17.61;39.48
43770;BME280;6597;52.218;9.882;2023-05-01T08:37:21;100770.59;;;18.08;39.26
43770;BME280;6597;52.218;9.882;2023-05-01T08:39:47;100764.63;;;18.44;39.75
43770;BME280;6597;52.218;9.882;2023-05-01T08:42:14;100762.69;;;18.73;39.39
43770;BME280;6597;52.218;9.882;2023-05-01T08:44:41;100755.66;;;18.97;38.69
43770;BME280;6597;52.218;9.882;2023-05-01T08:47:10;100759.19;;;18.98;38.34
43770;BME280;6597;52.218;9.882;2023-05-01T08:49:39;100756.91;;;19.17;38.23
43770;BME280;6597;52.218;9.882;2023-05-01T08:52:10;100751.81;;;19.14;37.63
43770;BME280;6597;52.218;9.882;2023-05-01T08:54:38;100753.28;;;19.18;37.33
43770;BME280;6597;52.218;9.882;2023-05-01T08:57:05;100751.94;;;19.49;37.71
43770;BME280;6597;52.218;9.882;2023-05-01T08:59:34;100748.03;;;19.54;36.30
43770;BME280;6597;52.218;9.882;2023-05-01T09:02:02;100735.53;;;19.68;35.99
43770;BME280;6597;52.218;9.882;2023-05-01T09:04:31;100737.34;;;19.67;37.96
43770;BME280;6597;52.218;9.882;2023-05-01T09:06:59;100743.88;;;19.87;36.69
43770;BME280;6597;52.218;9.882;2023-05-01T09:09:27;100734.19;;;19.86;36.43
43770;BME280;6597;52.218;9.882;2023-05-01T09:11:55;100735.72;;;20.12;37.66
43770;BME280;6597;52.218;9.882;2023-05-01T09:14:25;100734.13;;;20.34;36.60
43770;BME280;6597;52.218;9.882;2023-05-01T09:16:52;100728.50;;;20.49;37.21
43770;BME280;6597;52.218;9.882;2023-05-01T09:19:19;100735.78;;;20.59;37.22
43770;BME280;6597;52.218;9.882;2023-05-01T09:21:45;100726.09;;;20.58;36.85
43770;BME280;6597;52.218;9.882;2023-05-01T09:24:12;100718.34;;;20.55;36.07
43770;BME280;6597;52.218;9.882;2023-05-01T09:26:40;100722.38;;;20.36;35.81
43770;BME280;6597;52.218;9.882;2023-05-01T09:29:07;100719.47;;;20.39;37.94
43770;BME280;6597;52.218;9.882;2023-05-01T09:31:35;100715.38;;;20.46;35.93
43770;BME280;6597;52.218;9.882;2023-05-01T09:34:03;100715.19;;;20.49;36.37
43770;BME280;6597;52.218;9.882;2023-05-01T09:36:31;100709.44;;;20.43;36.93
43770;BME280;6597;52.218;9.882;2023-05-01T09:38:58;100703.66;;;20.60;37.28
43770;BME280;6597;52.218;9.882;2023-05-01T09:41:27;100709.59;;;20.53;36.35
43770;BME280;6597;52.218;9.882;2023-05-01T09:43:57;100706.81;;;20.54;37.17
43770;BME280;6597;52.218;9.882;2023-05-01T09:46:24;100707.56;;;20.67;36.83
43770;BME280;6597;52.218;9.882;2023-05-01T09:48:53;100701.25;;;20.79;37.15
43770;BME280;6597;52.218;9.882;2023-05-01T09:51:22;100698.56;;;20.79;35.13
43770;BME280;6597;52.218;9.882;2023-05-01T09:53:50;100697.63;;;20.92;35.98
43770;BME280;6597;52.218;9.882;2023-05-01T09:56:17;100692.41;;;21.01;36.19
43770;BME280;6597;52.218;9.882;2023-05-01T09:58:44;100694.97;;;21.14;35.34
43770;BME280;6597;52.218;9.882;2023-05-01T10:01:12;100692.31;;;21.25;35.76
43770;BME280;6597;52.218;9.882;2023-05-01T10:03:39;100684.94;;;21.61;35.42
43770;BME280;6597;52.218;9.882;2023-05-01T10:06:08;100694.19;;;21.89;35.51
43770;BME280;6597;52.218;9.882;2023-05-01T10:08:45;100676.25;;;22.00;33.11
43770;BME280;6597;52.218;9.882;2023-05-01T10:11:12;100684.16;;;22.13;33.63
43770;BME280;6597;52.218;9.882;2023-05-01T10:13:38;100679.19;;;22.29;33.24
43770;BME280;6597;52.218;9.882;2023-05-01T10:16:06;100676.44;;;22.41;34.00
43770;BME280;6597;52.218;9.882;2023-05-01T10:18:36;100679.59;;;22.46;31.91
43770;BME280;6597;52.218;9.882;2023-05-01T10:21:03;100663.97;;;22.51;32.99
43770;BME280;6597;52.218;9.882;2023-05-01T10:23:30;100671.53;;;22.76;34.44
43770;BME280;6597;52.218;9.882;2023-05-01T10:26:00;100663.56;;;23.16;35.29
43770;BME280;6597;52.218;9.882;2023-05-01T10:28:28;100667.59;;;23.51;32.15
43770;BME280;6597;52.218;9.882;2023-05-01T10:30:56;100665.53;;;23.83;32.63
43770;BME280;6597;52.218;9.882;2023-05-01T10:33:23;100671.00;;;24.01;32.03
43770;BME280;6597;52.218;9.882;2023-05-01T10:35:56;100658.47;;;24.11;31.55
43770;BME280;6597;52.218;9.882;2023-05-01T10:38:30;100656.34;;;23.96;32.47
43770;BME280;6597;52.218;9.882;2023-05-01T10:40:58;100656.78;;;23.91;33.06
43770;BME280;6597;52.218;9.882;2023-05-01T10:43:26;100642.13;;;23.76;31.77
43770;BME280;6597;52.218;9.882;2023-05-01T10:45:54;100645.34;;;23.60;33.04
43770;BME280;6597;52.218;9.882;2023-05-01T10:48:56;100648.50;;;23.25;32.94
43770;BME280;6597;52.218;9.882;2023-05-01T10:51:25;100640.41;;;23.55;33.96
43770;BME280;6597;52.218;9.882;2023-05-01T10:54:21;100640.53;;;24.02;32.46
43770;BME280;6597;52.218;9.882;2023-05-01T10:56:48;100637.56;;;24.05;31.81
43770;BME280;6597;52.218;9.882;2023-05-01T10:59:15;100635.75;;;23.96;31.77
43770;BME280;6597;52.218;9.882;2023-05-01T11:01:42;100629.81;;;24.12;31.14
43770;BME280;6597;52.218;9.882;2023-05-01T11:07:17;100632.75;;;24.75;30.61
43770;BME280;6597;52.218;9.882;2023-05-01T11:09:45;100631.00;;;24.83;31.13
43770;BME280;6597;52.218;9.882;2023-05-01T11:12:14;100630.94;;;24.93;32.27
43770;BME280;6597;52.218;9.882;2023-05-01T11:15:08;100624.66;;;24.85;31.33
43770;BME280;6597;52.218;9.882;2023-05-01T11:17:44;100615.66;;;24.76;31.08
43770;BME280;6597;52.218;9.882;2023-05-01T11:20:12;100615.56;;;24.58;30.66
43770;BME280;6597;52.218;9.882;2023-05-01T11:22:44;100615.38;;;24.23;31.94
43770;BME280;6597;52.218;9.882;2023-05-01T11:25:18;100611.84;;;24.41;30.87
43770;BME280;6597;52.218;9.882;2023-05-01T11:27:46;100611.72;;;24.14;32.06
43770;BME280;6597;52.218;9.882;2023-05-01T11:30:13;100615.00;;;24.08;34.01
43770;BME280;6597;52.218;9.882;2023-05-01T11:32:42;100613.25;;;24.36;31.99
43770;BME280;6597;52.218;9.882;2023-05-01T11:35:15;100612.25;;;24.37;31.75
43770;BME280;6597;52.218;9.882;2023-05-01T11:37:44;100602.19;;;24.48;30.12
43770;BME280;6597;52.218;9.882;2023-05-01T11:40:21;100597.53;;;24.50;30.86
43770;BME280;6597;52.218;9.882;2023-05-01T11:42:49;100597.44;;;24.70;31.68
43770;BME280;6597;52.218;9.882;2023-05-01T11:45:19;100597.84;;;25.02;32.98
43770;BME280;6597;52.218;9.882;2023-05-01T11:47:46;100591.78;;;25.00;32.44
43770;BME280;6597;52.218;9.882;2023-05-01T11:50:13;100589.94;;;24.73;32.34
43770;BME280;6597;52.218;9.882;2023-05-01T11:52:44;100582.47;;;24.40;31.26
43770;BME280;6597;52.218;9.882;2023-05-01T11:55:11;100588.25;;;24.26;31.95
43770;BME280;6597;52.218;9.882;2023-05-01T11:57:44;100587.44;;;24.06;31.86
43770;BME280;6597;52.218;9.882;2023-05-01T12:00:13;100582.53;;;24.11;31.92
43770;BME280;6597;52.218;9.882;2023-05-01T12:02:40;100588.28;;;24.16;31.57
43770;BME280;6597;52.218;9.882;2023-05-01T12:05:14;100587.84;;;24.30;32.28
43770;BME280;6597;52.218;9.882;2023-05-01T12:07:41;100577.38;;;24.27;31.65
43770;BME280;6597;52.218;9.882;2023-05-01T12:10:09;100584.56;;;24.36;31.54
43770;BME280;6597;52.218;9.882;2023-05-01T12:12:36;100579.34;;;24.44;32.32
43770;BME280;6597;52.218;9.882;2023-05-01T12:15:06;100576.69;;;24.72;32.76
43770;BME280;6597;52.218;9.882;2023-05-01T12:17:34;100571.78;;;24.85;32.82
43770;BME280;6597;52.218;9.882;2023-05-01T12:20:02;100574.31;;;24.87;32.08
43770;BME280;6597;52.218;9.882;2023-05-01T12:22:30;100570.03;;;24.94;31.28
43770;BME280;6597;52.218;9.882;2023-05-01T12:25:00;100577.94;;;24.95;30.90
43770;BME280;6597;52.218;9.882;2023-05-01T12:27:30;100570.66;;;25.15;32.14
43770;BME280;6597;52.218;9.882;2023-05-01T12:29:57;100565.13;;;25.52;29.90
43770;BME280;6597;52.218;9.882;2023-05-01T12:32:29;100560.44;;;25.54;30.40
43770;BME280;6597;52.218;9.882;2023-05-01T12:34:56;100561.19;;;25.82;30.63
43770;BME280;6597;52.218;9.882;2023-05-01T12:37:29;100556.66;;;25.83;30.29
43770;BME280;6597;52.218;9.882;2023-05-01T12:39:56;100563.31;;;25.96;30.60
43770;BME280;6597;52.218;9.882;2023-05-01T12:42:24;100559.53;;;26.07;29.60
43770;BME280;6597;52.218;9.882;2023-05-01T12:44:59;100561.66;;;26.29;29.27
43770;BME280;6597;52.218;9.882;2023-05-01T12:47:35;100554.91;;;26.25;29.42
43770;BME280;6597;52.218;9.882;2023-05-01T12:50:02;100553.31;;;26.07;30.45
43770;BME280;6597;52.218;9.882;2023-05-01T12:52:29;100549.38;;;25.75;30.69
43770;BME280;6597;52.218;9.882;2023-05-01T12:55:01;100551.31;;;25.11;30.68
43770;BME280;6597;52.218;9.882;2023-05-01T12:57:28;100549.06;;;24.79;32.03
43770;BME280;6597;52.218;9.882;2023-05-01T12:59:59;100532.59;;;24.37;31.49
43770;BME280;6597;52.218;9.882;2023-05-01T13:02:31;100537.22;;;24.08;32.33
43770;BME280;6597;52.218;9.882;2023-05-01T13:05:05;100537.25;;;23.88;33.48
43770;BME280;6597;52.218;9.882;2023-05-01T13:07:32;100533.59;;;23.89;32.25
43770;BME280;6597;52.218;9.882;2023-05-01T13:09:59;100533.19;;;23.84;34.08
43770;BME280;6597;52.218;9.882;2023-05-01T13:12:26;100525.72;;;23.78;33.09
43770;BME280;6597;52.218;9.882;2023-05-01T13:14:53;100534.00;;;23.95;32.23
43770;BME280;6597;52.218;9.882;2023-05-01T13:17:22;100532.19;;;23.85;32.13